Terminal Aerodrome Forecast
Issued by NWS Amarillo, TX

Home | Current Version | Previous Version | Text Only | Print | Product List | Glossary On
Versions: 1 2 3 4 5 6 7 8 9 10 11 12 13 14 15 16 17
944
FTUS44 KAMA 302338
TAFDHT
TAF
KDHT 302338Z 3100/3124 14010KT P6SM BKN300
     FM310800 12010KT 6SM BR OVC010
     FM311600 13021G31KT P6SM OVC300=

USA.gov is the U.S. government's official web portal to all federal, state and local government web resources and services.